Time;durP1;ratioP1;P1;durP2;ratioP2;P2;SDS_P1;SDS_P2;PMS_P1;PMS_P2;Temp;Humidity;BMP_temperature;BMP_pressure;BME280_temperature;BME280_humidity;BME280_pressure;Samples;Min_cycle;Max_cycle;Signal;HPM_P1;HPM_P2
2023/12/21 00:00:34;;;;;;;38.47;31.25;;;10.00;88.30;;;;;;5075706;28;20036;-70
2023/12/21 00:03:00;;;;;;;39.15;29.98;;;10.10;88.40;;;;;;5075681;28;20043;-73
2023/12/21 00:05:26;;;;;;;41.80;30.20;;;10.10;88.10;;;;;;5075706;28;20135;-72
2023/12/21 00:07:51;;;;;;;41.35;30.90;;;10.10;87.90;;;;;;5078480;28;20537;-74
2023/12/21 00:10:17;;;;;;;37.40;30.13;;;10.10;88.00;;;;;;5079710;28;20486;-72
2023/12/21 00:12:44;;;;;;;37.17;28.88;;;10.10;88.40;;;;;;5075418;28;20437;-72
2023/12/21 00:15:10;;;;;;;34.90;27.95;;;10.00;88.10;;;;;;5075308;28;20033;-73
2023/12/21 00:17:35;;;;;;;36.85;28.88;;;9.90;89.10;;;;;;5075358;28;20037;-72
2023/12/21 00:20:02;;;;;;;36.78;27.85;;;9.90;89.50;;;;;;5057470;28;20077;-71
2023/12/21 00:22:28;;;;;;;34.35;27.00;;;9.90;89.40;;;;;;5075076;28;20037;-72
2023/12/21 00:24:53;;;;;;;30.38;25.27;;;9.90;89.70;;;;;;5057228;28;20039;-72
2023/12/21 00:27:19;;;;;;;33.83;26.50;;;9.90;89.30;;;;;;5075307;28;20513;-73
2023/12/21 00:29:45;;;;;;;33.25;26.55;;;10.00;88.20;;;;;;5075120;28;20039;-73
2023/12/21 00:32:10;;;;;;;32.20;26.25;;;10.10;88.20;;;;;;5075267;28;20041;-73
2023/12/21 00:34:36;;;;;;;33.38;25.77;;;10.10;88.20;;;;;;5074850;28;20500;-73
2023/12/21 00:37:02;;;;;;;32.47;25.95;;;10.10;88.10;;;;;;5075112;28;20116;-72
2023/12/21 00:39:27;;;;;;;31.55;25.92;;;10.20;88.10;;;;;;5087732;28;20033;-72
2023/12/21 00:41:53;;;;;;;33.00;25.73;;;10.20;88.10;;;;;;5095274;28;20481;-73
2023/12/21 00:44:19;;;;;;;30.92;24.80;;;10.20;88.00;;;;;;5094975;28;20052;-73
2023/12/21 00:46:44;;;;;;;34.10;26.25;;;10.20;87.80;;;;;;5095056;28;20036;-72
2023/12/21 00:49:10;;;;;;;31.80;24.75;;;10.20;87.80;;;;;;5095090;28;20111;-73
2023/12/21 00:51:36;;;;;;;32.53;25.65;;;10.20;87.90;;;;;;5095184;28;20032;-72
2023/12/21 00:54:02;;;;;;;30.45;24.73;;;10.20;87.70;;;;;;5095675;28;20054;-70
2023/12/21 00:56:28;;;;;;;31.58;25.33;;;10.20;87.90;;;;;;5094840;28;20040;-71
2023/12/21 00:58:53;;;;;;;29.48;24.20;;;10.20;87.70;;;;;;5094594;28;20028;-72
2023/12/21 01:01:19;;;;;;;29.77;25.17;;;10.10;87.60;;;;;;5094769;28;20482;-73
2023/12/21 01:03:45;;;;;;;31.30;24.15;;;10.10;87.90;;;;;;5094859;28;20040;-72
2023/12/21 01:06:10;;;;;;;31.50;25.35;;;10.00;87.80;;;;;;5094839;28;20035;-72
2023/12/21 01:08:36;;;;;;;31.80;26.30;;;10.10;88.10;;;;;;5094569;28;20052;-72
2023/12/21 01:11:02;;;;;;;32.05;26.35;;;10.10;87.70;;;;;;5094714;28;20046;-72
2023/12/21 01:13:27;;;;;;;30.20;25.65;;;10.00;87.80;;;;;;5094515;28;20477;-72
2023/12/21 01:15:53;;;;;;;33.00;25.95;;;10.00;87.70;;;;;;5094507;28;20040;-71
2023/12/21 01:18:19;;;;;;;29.58;25.55;;;9.90;89.00;;;;;;5094216;28;20056;-72
2023/12/21 01:20:45;;;;;;;32.97;26.23;;;9.90;89.10;;;;;;5076514;28;20103;-72
2023/12/21 01:23:10;;;;;;;30.48;25.67;;;9.90;89.00;;;;;;5074290;28;20490;-72
2023/12/21 01:25:36;;;;;;;31.98;26.02;;;9.90;88.80;;;;;;5074119;28;20074;-72
2023/12/21 01:28:02;;;;;;;32.78;26.25;;;9.90;88.80;;;;;;5074045;28;20398;-72
2023/12/21 01:30:27;;;;;;;35.15;26.88;;;9.80;88.90;;;;;;5074311;28;20155;-73
2023/12/21 01:32:53;;;;;;;33.40;25.58;;;9.80;89.00;;;;;;5055926;28;20028;-71
2023/12/21 01:35:20;;;;;;;31.48;25.05;;;9.80;89.40;;;;;;5073569;28;20478;-73
2023/12/21 01:37:46;;;;;;;31.25;25.50;;;9.80;89.00;;;;;;5073838;28;20174;-71
2023/12/21 01:40:12;;;;;;;32.00;25.40;;;9.70;89.00;;;;;;5073714;28;20389;-72
2023/12/21 01:42:37;;;;;;;34.33;27.38;;;9.70;89.20;;;;;;5073864;28;20489;-72
2023/12/21 01:45:04;;;;;;;32.38;25.58;;;9.70;89.50;;;;;;5055510;28;20123;-72
2023/12/21 01:47:30;;;;;;;30.08;25.13;;;9.70;89.40;;;;;;5073646;28;20031;-72
2023/12/21 01:49:56;;;;;;;30.63;25.75;;;9.70;89.10;;;;;;5073514;28;20083;-72
2023/12/21 01:52:22;;;;;;;31.13;24.65;;;9.70;89.10;;;;;;5073570;28;20032;-73
2023/12/21 01:54:48;;;;;;;33.03;26.17;;;9.70;89.40;;;;;;5073605;28;20056;-72
2023/12/21 01:57:14;;;;;;;31.95;25.33;;;9.60;89.00;;;;;;5073372;28;20119;-73
2023/12/21 01:59:40;;;;;;;31.67;26.10;;;9.70;89.20;;;;;;5073583;28;20040;-72
2023/12/21 02:02:06;;;;;;;34.10;26.55;;;9.60;89.00;;;;;;5073368;28;20032;-73
2023/12/21 02:04:32;;;;;;;34.83;26.08;;;9.60;89.30;;;;;;5073302;28;20033;-73
2023/12/21 02:06:58;;;;;;;31.25;26.67;;;9.70;89.10;;;;;;5055270;28;20036;-72
2023/12/21 02:09:23;;;;;;;35.30;27.85;;;9.70;89.40;;;;;;5072973;28;20086;-73
2023/12/21 02:11:49;;;;;;;32.85;27.40;;;9.70;89.00;;;;;;5073181;28;20494;-72
2023/12/21 02:14:15;;;;;;;35.50;27.77;;;9.60;89.20;;;;;;5072614;28;20103;-72
2023/12/21 02:17:03;;;;;;;36.17;29.42;;;9.60;89.30;;;;;;5073256;28;20498;-73
2023/12/21 02:19:29;;;;;;;33.20;28.08;;;9.60;89.40;;;;;;5054699;28;20040;-72
2023/12/21 02:21:58;;;;;;;37.03;29.60;;;9.60;89.60;;;;;;5054738;28;20508;-73
2023/12/21 02:24:25;;;;;;;37.63;30.40;;;9.60;89.30;;;;;;5072859;28;20036;-73
2023/12/21 02:26:51;;;;;;;36.15;29.30;;;9.60;89.30;;;;;;5072706;28;20107;-73
2023/12/21 02:29:17;;;;;;;35.50;29.58;;;9.50;89.50;;;;;;5072736;28;20182;-72
2023/12/21 02:31:42;;;;;;;37.65;30.60;;;9.50;90.10;;;;;;5072997;28;20036;-74
2023/12/21 02:34:09;;;;;;;38.55;30.20;;;9.50;89.70;;;;;;5072731;28;20051;-73
2023/12/21 02:36:34;;;;;;;37.45;30.33;;;9.40;89.70;;;;;;5054296;28;20509;-72
2023/12/21 02:39:00;;;;;;;38.03;31.17;;;9.40;89.80;;;;;;5072486;28;20120;-73
2023/12/21 02:41:26;;;;;;;39.67;32.17;;;9.40;89.80;;;;;;5072544;28;20028;-72
2023/12/21 02:43:52;;;;;;;41.95;33.55;;;9.50;90.00;;;;;;5072550;28;20183;-72
2023/12/21 02:46:19;;;;;;;43.35;33.63;;;9.40;90.00;;;;;;5072557;28;20029;-72
2023/12/21 02:48:45;;;;;;;39.60;33.22;;;9.30;89.60;;;;;;5072400;28;20432;-74
2023/12/21 02:51:11;;;;;;;42.95;33.17;;;9.30;89.90;;;;;;5072336;28;20070;-73
2023/12/21 02:53:37;;;;;;;43.60;35.20;;;9.30;90.00;;;;;;5072378;28;20025;-71
2023/12/21 02:56:03;;;;;;;40.38;33.58;;;9.20;89.70;;;;;;5072310;28;20044;-72
2023/12/21 02:58:29;;;;;;;41.72;34.78;;;9.20;90.10;;;;;;5054109;28;20028;-72
2023/12/21 03:00:55;;;;;;;41.03;33.47;;;9.20;90.00;;;;;;5072515;28;20040;-73
2023/12/21 03:03:20;;;;;;;39.15;33.72;;;9.20;90.10;;;;;;5072553;28;20029;-73
2023/12/21 03:05:46;;;;;;;42.15;33.92;;;9.20;90.00;;;;;;5072768;28;20075;-73
2023/12/21 03:08:12;;;;;;;43.70;34.17;;;9.20;90.00;;;;;;5073142;28;20039;-72
2023/12/21 03:10:38;;;;;;;41.28;33.25;;;9.20;90.10;;;;;;5072534;28;20478;-72
2023/12/21 03:13:04;;;;;;;39.75;32.95;;;9.20;89.90;;;;;;5072558;28;20025;-73
2023/12/21 03:15:31;;;;;;;41.65;33.65;;;9.20;90.10;;;;;;5072475;28;20041;-72
2023/12/21 03:17:57;;;;;;;41.30;32.97;;;9.20;90.00;;;;;;5054416;28;20040;-73
2023/12/21 03:20:23;;;;;;;43.05;34.10;;;9.10;90.00;;;;;;5072337;28;20025;-72
2023/12/21 03:22:49;;;;;;;45.10;34.30;;;9.10;90.10;;;;;;5071914;28;20398;-73
2023/12/21 03:25:15;;;;;;;41.83;33.25;;;9.10;90.00;;;;;;5072679;28;20482;-72
2023/12/21 03:27:42;;;;;;;39.40;32.45;;;9.20;90.30;;;;;;5071641;28;20059;-73
2023/12/21 03:30:08;;;;;;;39.30;33.58;;;9.20;90.20;;;;;;5071961;28;20396;-72
2023/12/21 03:32:35;;;;;;;38.83;32.63;;;9.20;90.30;;;;;;5071779;28;20032;-72
2023/12/21 03:35:01;;;;;;;45.92;34.45;;;9.20;90.00;;;;;;5072062;28;20025;-73
2023/12/21 03:37:28;;;;;;;40.72;33.38;;;9.20;90.00;;;;;;5072311;28;20102;-73
2023/12/21 03:39:55;;;;;;;39.85;31.92;;;9.20;90.10;;;;;;5072178;28;20035;-74
2023/12/21 03:42:21;;;;;;;40.72;32.50;;;9.10;90.10;;;;;;5072299;28;20433;-73
2023/12/21 03:44:47;;;;;;;39.50;32.53;;;9.10;90.20;;;;;;5071856;28;20080;-73
2023/12/21 03:47:13;;;;;;;43.05;32.65;;;9.00;90.10;;;;;;5071867;28;20413;-72
2023/12/21 03:49:39;;;;;;;39.33;32.35;;;9.00;90.20;;;;;;5072173;28;20040;-73
2023/12/21 03:52:06;;;;;;;37.22;30.10;;;8.90;90.10;;;;;;5071648;28;20036;-73
2023/12/21 03:54:31;;;;;;;37.63;31.02;;;8.90;90.20;;;;;;5071853;28;20236;-72
2023/12/21 03:56:57;;;;;;;35.53;30.27;;;9.00;90.20;;;;;;5071756;28;20072;-72
2023/12/21 03:59:23;;;;;;;36.88;29.30;;;8.90;90.20;;;;;;5071670;28;20033;-73
2023/12/21 04:01:49;;;;;;;39.63;30.63;;;8.90;90.40;;;;;;5071625;28;20544;-73
2023/12/21 04:04:14;;;;;;;34.70;28.60;;;8.80;90.20;;;;;;5071659;28;20025;-72
2023/12/21 04:06:40;;;;;;;38.20;28.92;;;8.90;90.30;;;;;;5071541;28;20409;-72
2023/12/21 04:09:06;;;;;;;33.63;28.23;;;8.80;90.20;;;;;;5071492;28;20039;-71
2023/12/21 04:11:31;;;;;;;33.22;27.33;;;8.90;90.30;;;;;;5071635;28;20044;-72
2023/12/21 04:13:57;;;;;;;34.03;27.02;;;8.90;90.20;;;;;;5053563;28;20025;-72
2023/12/21 04:16:23;;;;;;;32.97;26.35;;;8.80;90.20;;;;;;5071288;28;20390;-72
2023/12/21 04:18:48;;;;;;;38.75;28.85;;;8.90;90.30;;;;;;5071412;28;20505;-72
2023/12/21 04:21:14;;;;;;;34.33;27.42;;;8.80;90.20;;;;;;5071976;28;20057;-73
2023/12/21 04:23:40;;;;;;;36.08;26.50;;;8.80;90.10;;;;;;5071369;28;20470;-73
2023/12/21 04:26:05;;;;;;;32.00;26.60;;;8.80;90.20;;;;;;5071545;28;20033;-73
2023/12/21 04:28:32;;;;;;;31.73;25.63;;;8.80;90.20;;;;;;5053561;28;20120;-72
2023/12/21 04:30:58;;;;;;;34.58;26.40;;;8.70;90.20;;;;;;5071990;28;20032;-72
2023/12/21 04:33:24;;;;;;;31.55;25.77;;;8.70;90.30;;;;;;5071079;28;20040;-72
2023/12/21 04:35:49;;;;;;;30.67;25.70;;;8.70;90.40;;;;;;5071140;28;20056;-72
2023/12/21 04:38:15;;;;;;;32.03;26.70;;;8.70;90.30;;;;;;5073282;28;20449;-73
2023/12/21 04:40:41;;;;;;;34.53;25.90;;;8.70;90.30;;;;;;5075032;28;20033;-73
2023/12/21 22:42:20;;;;;;;23.52;10.30;;;12.80;89.80;;;;;;5071060;22;20153;-73
2023/12/21 22:44:45;;;;;;;22.30;10.82;;;12.70;89.80;;;;;;5050880;28;20446;-73
2023/12/21 22:47:12;;;;;;;27.23;12.25;;;12.80;89.90;;;;;;5051624;28;20048;-73
2023/12/21 22:49:38;;;;;;;26.70;11.10;;;12.70;89.90;;;;;;5053216;28;20342;-73
2023/12/21 22:52:04;;;;;;;27.08;10.60;;;12.80;90.00;;;;;;5047760;28;20464;-73
2023/12/21 22:54:34;;;;;;;21.40;9.88;;;12.80;90.00;;;;;;5050264;28;20033;-73
2023/12/21 22:57:00;;;;;;;25.38;9.77;;;12.80;89.90;;;;;;5052085;28;20136;-74
2023/12/21 22:59:26;;;;;;;23.42;9.43;;;12.80;90.00;;;;;;5051232;28;20148;-72
2023/12/21 23:01:52;;;;;;;25.13;9.75;;;12.80;89.90;;;;;;5047721;28;20037;-74
2023/12/21 23:04:17;;;;;;;23.02;10.68;;;12.80;90.00;;;;;;5051160;28;20033;-73
2023/12/21 23:06:43;;;;;;;26.30;9.60;;;12.90;90.00;;;;;;5033762;28;20068;-73
2023/12/21 23:09:10;;;;;;;22.33;8.77;;;12.90;90.00;;;;;;5051636;28;20079;-72
2023/12/21 23:11:35;;;;;;;22.90;8.05;;;12.90;90.00;;;;;;5047456;28;20467;-74
2023/12/21 23:14:01;;;;;;;34.90;9.90;;;12.90;89.90;;;;;;5050703;28;20044;-72
2023/12/21 23:16:27;;;;;;;25.23;9.32;;;13.00;90.10;;;;;;5051399;28;20021;-73
2023/12/21 23:18:52;;;;;;;29.08;9.93;;;13.00;90.00;;;;;;5044565;28;20602;-73
2023/12/21 23:21:18;;;;;;;22.38;9.02;;;12.90;90.00;;;;;;5048509;28;20028;-73
2023/12/21 23:23:44;;;;;;;28.85;9.15;;;12.90;90.00;;;;;;5045085;28;20037;-72
2023/12/21 23:26:10;;;;;;;33.33;9.02;;;12.90;90.00;;;;;;5051460;28;20040;-73
2023/12/21 23:28:36;;;;;;;27.38;9.32;;;12.80;90.10;;;;;;5050136;28;20040;-72
2023/12/21 23:31:01;;;;;;;30.02;9.25;;;12.80;90.00;;;;;;5050880;28;20037;-72
2023/12/21 23:33:27;;;;;;;30.75;9.65;;;12.80;90.00;;;;;;5051461;28;20376;-72
2023/12/21 23:35:53;;;;;;;25.73;8.52;;;12.80;90.00;;;;;;5051521;28;20033;-73
2023/12/21 23:38:18;;;;;;;27.50;8.05;;;12.80;90.10;;;;;;5051193;28;20044;-73
2023/12/21 23:40:47;;;;;;;24.42;7.40;;;12.80;90.10;;;;;;5045973;28;20112;-73
2023/12/21 23:43:12;;;;;;;18.30;6.60;;;12.80;90.20;;;;;;5053550;28;20111;-73
2023/12/21 23:45:38;;;;;;;23.20;7.40;;;12.80;90.00;;;;;;5055455;28;20029;-73
2023/12/21 23:48:05;;;;;;;27.30;7.32;;;12.80;90.20;;;;;;5055191;28;20037;-73
2023/12/21 23:50:30;;;;;;;24.98;7.93;;;12.80;90.20;;;;;;5055607;28;20079;-73
2023/12/21 23:52:56;;;;;;;25.10;7.40;;;12.80;90.20;;;;;;5055476;28;20037;-72
2023/12/21 23:55:22;;;;;;;27.27;7.45;;;12.70;90.10;;;;;;5055454;28;20394;-72
2023/12/21 23:57:47;;;;;;;23.08;6.95;;;12.70;90.30;;;;;;5055218;28;20040;-73
